createdAt,value
2017-05-29T00:00:02.261Z,17.40
2017-05-29T00:02:29.429Z,17.40
2017-05-29T00:04:56.630Z,17.30
2017-05-29T00:07:23.778Z,17.20
2017-05-29T00:09:50.958Z,17.20
2017-05-29T00:12:18.150Z,17.20
2017-05-29T00:14:45.324Z,17.10
2017-05-29T00:17:12.503Z,17.10
2017-05-29T00:19:39.803Z,17.00
2017-05-29T00:22:06.987Z,17.00
2017-05-29T00:24:34.155Z,17.00
2017-05-29T00:27:01.426Z,17.00
2017-05-29T00:29:28.584Z,16.90
2017-05-29T00:31:55.764Z,16.90
2017-05-29T00:34:22.961Z,16.90
2017-05-29T00:36:50.137Z,16.80
2017-05-29T00:39:17.309Z,16.80
2017-05-29T00:41:44.464Z,16.80
2017-05-29T00:44:11.641Z,16.80
2017-05-29T00:46:38.799Z,16.80
2017-05-29T00:49:06.076Z,16.70
2017-05-29T00:51:33.243Z,16.70
2017-05-29T00:54:00.414Z,16.70
2017-05-29T00:56:27.590Z,16.60
2017-05-29T00:58:54.768Z,16.60
2017-05-29T01:01:22.255Z,16.60
2017-05-29T01:03:49.429Z,16.60
2017-05-29T01:06:16.646Z,16.50
2017-05-29T01:08:44.093Z,16.50
2017-05-29T01:11:11.306Z,16.50
2017-05-29T01:13:38.485Z,16.40
2017-05-29T01:16:05.666Z,16.40
2017-05-29T01:18:32.830Z,16.30
2017-05-29T01:21:00.279Z,16.30
2017-05-29T01:23:27.426Z,16.30
2017-05-29T01:25:54.617Z,16.30
2017-05-29T01:28:21.795Z,16.20
2017-05-29T01:30:49.105Z,16.20
2017-05-29T01:33:16.310Z,16.10
2017-05-29T01:35:43.464Z,16.10
2017-05-29T01:38:10.648Z,16.10
2017-05-29T01:40:38.132Z,16.00
2017-05-29T01:43:05.373Z,16.00
2017-05-29T01:45:32.620Z,16.00
2017-05-29T01:47:59.803Z,16.00
2017-05-29T01:50:27.039Z,16.00
2017-05-29T01:52:54.762Z,16.00
2017-05-29T01:55:21.948Z,15.90
2017-05-29T01:57:49.118Z,15.90
2017-05-29T02:00:16.336Z,15.90
2017-05-29T02:02:43.506Z,16.00
2017-05-29T02:05:10.685Z,15.90
2017-05-29T02:07:37.859Z,15.90
2017-05-29T02:10:05.031Z,15.90
2017-05-29T02:12:32.190Z,15.90
2017-05-29T02:14:59.508Z,15.80
2017-05-29T02:17:26.763Z,15.80
2017-05-29T02:19:53.951Z,15.80
2017-05-29T02:22:21.132Z,15.80
2017-05-29T02:24:48.369Z,15.80
2017-05-29T02:27:15.577Z,15.80
2017-05-29T02:29:42.728Z,15.70
2017-05-29T02:32:09.902Z,15.70
2017-05-29T02:34:37.085Z,15.70
2017-05-29T02:37:04.282Z,15.70
2017-05-29T02:39:31.501Z,15.70
2017-05-29T02:41:58.855Z,15.70
2017-05-29T02:44:26.226Z,15.60
2017-05-29T02:46:53.375Z,15.60
2017-05-29T02:49:20.672Z,15.60
2017-05-29T02:51:48.411Z,15.60
2017-05-29T02:54:15.610Z,15.60
2017-05-29T02:56:42.980Z,15.60
2017-05-29T02:59:10.189Z,15.60
2017-05-29T03:01:37.703Z,15.60
2017-05-29T03:04:04.900Z,15.60
2017-05-29T03:06:32.080Z,15.60
2017-05-29T03:08:59.328Z,15.60
2017-05-29T03:11:26.740Z,15.60
2017-05-29T03:13:54.026Z,15.60
2017-05-29T03:16:21.402Z,15.60
2017-05-29T03:18:48.581Z,15.60
2017-05-29T03:21:15.802Z,15.70
2017-05-29T03:23:43.233Z,15.70
2017-05-29T03:26:10.442Z,15.70
2017-05-29T03:28:37.764Z,15.70
2017-05-29T03:31:04.994Z,15.70
2017-05-29T03:33:32.224Z,15.80
2017-05-29T03:36:00.479Z,15.80
2017-05-29T03:38:28.023Z,15.80
2017-05-29T03:40:55.235Z,15.80
2017-05-29T03:43:22.452Z,15.80
2017-05-29T03:45:49.859Z,15.90
2017-05-29T03:48:17.063Z,16.00
2017-05-29T03:50:44.226Z,16.00
2017-05-29T03:53:11.464Z,16.10
2017-05-29T03:55:38.700Z,16.20
2017-05-29T03:58:06.101Z,16.40
2017-05-29T04:00:33.289Z,16.50
2017-05-29T04:03:01.574Z,16.70
2017-05-29T04:05:29.310Z,17.10
2017-05-29T04:07:56.577Z,17.80
2017-05-29T04:10:23.825Z,18.70
2017-05-29T04:12:51.069Z,19.70
2017-05-29T04:15:18.317Z,20.60
2017-05-29T04:17:45.733Z,21.50
2017-05-29T04:20:12.951Z,22.30
2017-05-29T04:22:41.677Z,23.00
2017-05-29T04:25:09.759Z,23.80
2017-05-29T04:27:37.167Z,24.50
2017-05-29T04:30:04.634Z,25.10
2017-05-29T04:32:32.045Z,25.70
2017-05-29T04:34:59.442Z,26.30
2017-05-29T04:37:26.914Z,26.90
2017-05-29T04:39:54.621Z,27.40
2017-05-29T04:42:21.936Z,27.90
2017-05-29T04:44:49.101Z,28.40
2017-05-29T04:47:16.243Z,28.90
2017-05-29T04:49:43.451Z,29.40
2017-05-29T04:52:10.727Z,29.70
2017-05-29T04:54:38.004Z,30.00
2017-05-29T04:57:05.523Z,30.30
2017-05-29T04:59:32.740Z,30.70
2017-05-29T05:01:59.912Z,31.00
2017-05-29T05:04:27.654Z,31.40
2017-05-29T05:06:54.871Z,31.90
2017-05-29T05:09:22.075Z,32.40
2017-05-29T05:11:49.638Z,32.80
2017-05-29T05:14:17.350Z,33.40
2017-05-29T05:16:44.569Z,33.80
2017-05-29T05:19:11.805Z,34.20
2017-05-29T05:21:38.986Z,34.70
2017-05-29T05:24:06.314Z,35.00
2017-05-29T05:26:33.531Z,35.40
2017-05-29T05:29:00.979Z,35.50
2017-05-29T05:31:28.188Z,35.30
2017-05-29T05:34:11.348Z,35.60
2017-05-29T05:36:38.820Z,36.00
2017-05-29T05:39:06.008Z,36.50
2017-05-29T05:41:33.504Z,36.80
2017-05-29T05:44:00.964Z,36.80
2017-05-29T05:46:28.364Z,36.80
2017-05-29T05:48:55.753Z,37.00
2017-05-29T05:51:23.106Z,37.50
2017-05-29T05:53:50.285Z,37.90
2017-05-29T05:56:17.797Z,38.10
2017-05-29T05:58:45.095Z,38.10
2017-05-29T06:01:12.288Z,38.20
2017-05-29T06:03:39.517Z,38.10
2017-05-29T06:06:06.679Z,37.80
2017-05-29T06:08:33.847Z,37.20
2017-05-29T06:11:01.536Z,36.50
2017-05-29T06:13:28.711Z,35.90
2017-05-29T06:15:56.155Z,35.70
2017-05-29T06:18:23.359Z,36.10
2017-05-29T06:20:50.760Z,36.80
2017-05-29T06:23:17.924Z,37.70
2017-05-29T06:25:45.261Z,38.60
2017-05-29T06:28:12.469Z,39.30
2017-05-29T06:30:39.657Z,39.90
2017-05-29T06:33:08.178Z,39.90
2017-05-29T06:35:35.359Z,39.20
2017-05-29T06:38:02.648Z,38.10
2017-05-29T06:40:29.923Z,36.90
2017-05-29T06:42:57.196Z,36.70
2017-05-29T06:45:24.401Z,37.30
2017-05-29T06:47:51.948Z,38.20
2017-05-29T06:50:21.676Z,38.80
2017-05-29T06:52:49.156Z,39.00
2017-05-29T06:55:16.350Z,39.10
2017-05-29T06:57:43.603Z,38.80
2017-05-29T07:00:10.814Z,38.10
2017-05-29T07:02:37.994Z,38.10
2017-05-29T07:05:05.210Z,39.10
2017-05-29T07:07:33.062Z,40.40
2017-05-29T07:10:00.266Z,41.20
2017-05-29T07:12:27.470Z,41.70
2017-05-29T07:14:54.727Z,42.30
2017-05-29T07:17:21.903Z,42.70
2017-05-29T07:19:49.127Z,43.20
2017-05-29T07:22:16.327Z,43.80
2017-05-29T07:24:43.492Z,43.90
2017-05-29T07:27:10.668Z,44.10
2017-05-29T07:29:37.828Z,44.40
2017-05-29T07:32:05.000Z,44.50
2017-05-29T07:34:32.185Z,44.50
2017-05-29T07:36:59.478Z,44.70
2017-05-29T07:39:26.720Z,44.90
2017-05-29T07:41:54.465Z,45.10
2017-05-29T07:44:21.811Z,45.10
2017-05-29T07:46:52.450Z,45.20
2017-05-29T07:49:20.761Z,45.30
2017-05-29T07:51:48.240Z,45.30
2017-05-29T07:54:15.469Z,45.50
2017-05-29T07:56:42.630Z,45.50
2017-05-29T07:59:09.846Z,45.20
2017-05-29T08:01:37.031Z,45.20
2017-05-29T08:04:04.216Z,45.20
2017-05-29T08:06:31.451Z,45.20
2017-05-29T08:08:58.827Z,45.20
2017-05-29T08:11:26.492Z,45.30
2017-05-29T08:13:53.668Z,45.10
2017-05-29T08:16:20.902Z,44.60
2017-05-29T08:18:48.099Z,43.90
2017-05-29T08:21:15.721Z,42.80
2017-05-29T08:23:42.894Z,41.50
2017-05-29T08:26:10.669Z,40.10
2017-05-29T08:28:37.854Z,38.80
2017-05-29T08:31:05.082Z,37.80
2017-05-29T08:33:32.299Z,37.10
2017-05-29T08:35:59.586Z,36.50
2017-05-29T08:38:26.760Z,36.00
2017-05-29T08:40:53.942Z,35.70
2017-05-29T08:43:21.111Z,35.50
2017-05-29T08:45:48.828Z,35.20
2017-05-29T08:48:16.059Z,35.00
2017-05-29T08:50:45.686Z,34.60
2017-05-29T08:53:12.916Z,34.40
2017-05-29T08:55:40.116Z,34.20
2017-05-29T08:58:07.444Z,34.00
2017-05-29T09:00:34.625Z,33.70
2017-05-29T09:03:01.803Z,33.50
2017-05-29T09:05:29.001Z,33.30
2017-05-29T09:07:56.173Z,33.10
2017-05-29T09:10:23.373Z,33.10
2017-05-29T09:12:50.557Z,33.10
2017-05-29T09:15:17.815Z,32.90
2017-05-29T09:17:44.986Z,32.70
2017-05-29T09:20:12.159Z,32.60
2017-05-29T09:22:39.338Z,32.50
2017-05-29T09:25:06.605Z,32.50
2017-05-29T09:27:33.783Z,32.40
2017-05-29T09:30:00.967Z,32.30
2017-05-29T09:32:28.156Z,32.40
2017-05-29T09:34:55.337Z,32.50
2017-05-29T09:37:26.308Z,32.60
2017-05-29T09:39:53.580Z,32.70
2017-05-29T09:42:20.745Z,32.80
2017-05-29T09:44:47.970Z,33.10
2017-05-29T09:47:15.223Z,33.30
2017-05-29T09:49:42.403Z,33.50
2017-05-29T09:52:09.597Z,33.80
2017-05-29T09:54:36.794Z,34.00
2017-05-29T09:57:04.139Z,34.20
2017-05-29T09:59:31.308Z,34.30
2017-05-29T10:01:58.480Z,34.20
2017-05-29T10:04:25.756Z,34.10
2017-05-29T10:06:52.903Z,34.00
2017-05-29T10:09:20.095Z,33.90
2017-05-29T10:11:47.981Z,33.80
2017-05-29T10:14:15.155Z,33.60
2017-05-29T10:16:42.328Z,33.50
2017-05-29T10:19:09.526Z,33.40
2017-05-29T10:21:36.716Z,33.30
2017-05-29T10:24:03.951Z,33.30
2017-05-29T10:26:31.443Z,33.30
2017-05-29T10:28:58.709Z,33.30
2017-05-29T10:31:25.939Z,33.40
2017-05-29T10:33:53.154Z,33.40
2017-05-29T10:36:20.969Z,33.40
2017-05-29T10:38:48.151Z,33.50
2017-05-29T10:41:15.324Z,33.50
2017-05-29T10:43:42.498Z,33.40
2017-05-29T10:46:09.736Z,33.40
2017-05-29T10:48:37.103Z,33.30
2017-05-29T10:51:04.377Z,33.30
2017-05-29T10:53:32.061Z,33.30
2017-05-29T10:55:59.335Z,33.30
2017-05-29T10:58:26.511Z,33.30
2017-05-29T11:00:53.758Z,33.30
2017-05-29T11:03:20.955Z,33.30
2017-05-29T11:05:48.142Z,33.30
2017-05-29T11:08:15.378Z,33.20
2017-05-29T11:10:42.673Z,33.30
2017-05-29T11:13:09.919Z,33.30
2017-05-29T11:15:37.203Z,33.40
2017-05-29T11:18:04.490Z,33.40
2017-05-29T11:20:31.787Z,33.40
2017-05-29T11:22:59.026Z,33.30
2017-05-29T11:25:26.425Z,33.20
2017-05-29T11:27:53.821Z,33.00
2017-05-29T11:30:21.077Z,32.80
2017-05-29T11:32:48.452Z,32.80
2017-05-29T11:35:15.724Z,32.70
2017-05-29T11:37:42.969Z,32.70
2017-05-29T11:40:11.091Z,32.70
2017-05-29T11:42:38.358Z,32.70
2017-05-29T11:45:05.578Z,32.50
2017-05-29T11:47:32.914Z,32.30
2017-05-29T11:50:00.290Z,32.20
2017-05-29T11:52:27.666Z,32.00
2017-05-29T11:54:55.122Z,32.00
2017-05-29T11:57:23.292Z,32.00
2017-05-29T11:59:50.717Z,32.00
2017-05-29T12:02:17.992Z,32.00
2017-05-29T12:04:45.279Z,32.00
2017-05-29T12:07:12.744Z,32.00
2017-05-29T12:09:40.021Z,32.00
2017-05-29T12:12:07.394Z,32.00
2017-05-29T12:14:34.649Z,32.00
2017-05-29T12:17:01.943Z,31.90
2017-05-29T12:19:29.541Z,31.80
2017-05-29T12:21:56.866Z,31.60
2017-05-29T12:24:24.137Z,31.50
2017-05-29T12:26:51.656Z,31.40
2017-05-29T12:29:19.690Z,31.30
2017-05-29T12:31:47.965Z,31.40
2017-05-29T12:34:15.318Z,31.30
2017-05-29T12:36:42.502Z,31.30
2017-05-29T12:39:09.971Z,31.30
2017-05-29T12:41:38.946Z,31.30
2017-05-29T12:44:06.258Z,31.30
2017-05-29T12:46:33.531Z,31.50
2017-05-29T12:49:01.114Z,31.50
2017-05-29T12:51:28.794Z,31.60
2017-05-29T12:53:56.089Z,31.60
2017-05-29T12:56:23.549Z,31.70
2017-05-29T12:58:51.230Z,31.70
2017-05-29T13:01:18.585Z,31.70
2017-05-29T13:03:46.098Z,31.70
2017-05-29T13:06:14.189Z,31.60
2017-05-29T13:08:42.222Z,31.60
2017-05-29T13:11:09.956Z,31.60
2017-05-29T13:13:37.298Z,31.70
2017-05-29T13:16:05.731Z,31.70
2017-05-29T13:18:33.062Z,31.60
2017-05-29T13:21:02.427Z,31.70
2017-05-29T13:23:31.542Z,31.60
2017-05-29T13:25:59.329Z,31.60
2017-05-29T13:28:27.535Z,31.60
2017-05-29T13:30:56.230Z,31.70
2017-05-29T13:33:25.890Z,31.90
2017-05-29T13:35:54.463Z,32.00
2017-05-29T13:38:23.675Z,32.00
2017-05-29T13:40:51.055Z,32.00
2017-05-29T13:43:18.433Z,32.00
2017-05-29T13:45:45.663Z,32.10
2017-05-29T13:48:13.165Z,32.10
2017-05-29T13:50:40.793Z,32.10
2017-05-29T13:53:08.837Z,32.10
2017-05-29T13:55:36.131Z,32.10
2017-05-29T13:58:03.916Z,32.00
2017-05-29T14:00:31.498Z,32.00
2017-05-29T14:02:58.748Z,32.00
2017-05-29T14:05:25.947Z,32.00
2017-05-29T14:07:53.219Z,32.00
2017-05-29T14:10:20.443Z,32.00
2017-05-29T14:12:47.629Z,31.90
2017-05-29T14:15:14.840Z,31.90
2017-05-29T14:17:42.111Z,31.90
2017-05-29T14:22:46.822Z,31.90
2017-05-29T14:25:14.162Z,31.90
2017-05-29T14:27:41.436Z,31.80
2017-05-29T14:30:09.119Z,31.70
2017-05-29T14:32:37.213Z,31.60
2017-05-29T14:35:04.589Z,31.60
2017-05-29T14:37:32.273Z,31.70
2017-05-29T14:39:59.547Z,31.70
2017-05-29T14:42:27.332Z,31.70
2017-05-29T14:44:54.915Z,31.70
2017-05-29T14:47:22.138Z,31.70
2017-05-29T14:49:49.353Z,31.60
2017-05-29T14:52:16.827Z,31.60
2017-05-29T14:54:44.829Z,31.70
2017-05-29T14:57:12.718Z,31.60
2017-05-29T14:59:40.742Z,31.60
2017-05-29T15:02:08.516Z,31.60
2017-05-29T15:04:35.697Z,31.60
2017-05-29T15:07:02.880Z,31.50
2017-05-29T15:09:30.056Z,31.50
2017-05-29T15:11:57.237Z,31.40
2017-05-29T15:14:24.448Z,31.30
2017-05-29T15:16:51.655Z,31.30
2017-05-29T15:19:18.945Z,31.30
2017-05-29T15:21:46.125Z,31.20
2017-05-29T15:24:13.514Z,31.20
2017-05-29T15:26:41.542Z,31.20
2017-05-29T15:29:08.722Z,31.10
2017-05-29T15:31:36.049Z,31.10
2017-05-29T15:34:03.235Z,31.00
2017-05-29T15:36:30.429Z,31.00
2017-05-29T15:38:57.633Z,31.00
2017-05-29T15:41:24.811Z,31.00
2017-05-29T15:43:52.004Z,30.90
2017-05-29T15:46:19.329Z,30.90
2017-05-29T15:48:46.550Z,30.90
2017-05-29T15:51:13.716Z,30.80
2017-05-29T15:53:40.901Z,30.80
2017-05-29T15:56:08.117Z,30.80
2017-05-29T15:58:35.269Z,30.80
2017-05-29T16:01:02.443Z,30.80
2017-05-29T16:03:29.618Z,30.70
2017-05-29T16:05:56.779Z,30.70
2017-05-29T16:08:23.977Z,30.70
2017-05-29T16:10:51.156Z,30.60
2017-05-29T16:13:18.335Z,30.60
2017-05-29T16:15:45.698Z,30.60
2017-05-29T16:18:12.973Z,30.60
2017-05-29T16:20:40.535Z,30.50
2017-05-29T16:23:22.635Z,30.50
2017-05-29T16:25:49.824Z,30.40
2017-05-29T16:28:41.241Z,30.40
2017-05-29T16:31:08.443Z,30.20
2017-05-29T16:33:37.683Z,30.10
2017-05-29T16:36:04.862Z,30.00
2017-05-29T16:38:32.078Z,29.90
2017-05-29T16:40:59.363Z,29.80
2017-05-29T16:43:26.627Z,29.70
2017-05-29T16:45:53.802Z,29.60
2017-05-29T16:48:21.074Z,29.60
2017-05-29T16:50:48.290Z,29.60
2017-05-29T16:53:15.505Z,29.50
2017-05-29T16:55:42.794Z,29.40
2017-05-29T16:58:10.482Z,29.30
2017-05-29T17:00:37.691Z,29.30
2017-05-29T17:03:05.391Z,29.20
2017-05-29T17:05:32.709Z,29.10
2017-05-29T17:07:59.944Z,29.10
2017-05-29T17:10:27.259Z,29.00
2017-05-29T17:12:54.464Z,28.90
2017-05-29T17:15:21.788Z,28.80
2017-05-29T17:17:49.080Z,28.70
2017-05-29T17:20:16.253Z,28.60
2017-05-29T17:22:43.501Z,28.50
2017-05-29T17:25:10.798Z,28.40
2017-05-29T17:27:38.001Z,28.40
2017-05-29T17:30:05.206Z,28.30
2017-05-29T17:32:32.390Z,28.20
2017-05-29T17:34:59.598Z,28.10
2017-05-29T17:37:26.846Z,28.00
2017-05-29T17:39:54.023Z,27.90
2017-05-29T17:42:21.431Z,27.80
2017-05-29T17:44:50.021Z,27.70
2017-05-29T17:47:17.263Z,27.70
2017-05-29T17:49:44.464Z,27.60
2017-05-29T17:52:11.635Z,27.60
2017-05-29T17:54:39.626Z,27.60
2017-05-29T17:57:06.828Z,27.50
2017-05-29T17:59:34.075Z,27.50
2017-05-29T18:02:01.280Z,27.50
2017-05-29T18:04:28.623Z,27.40
2017-05-29T18:06:55.832Z,27.30
2017-05-29T18:09:23.705Z,27.20
2017-05-29T18:11:50.901Z,27.10
2017-05-29T18:14:18.115Z,27.10
2017-05-29T18:16:45.357Z,27.00
2017-05-29T18:19:12.589Z,26.90
2017-05-29T18:21:39.895Z,26.80
2017-05-29T18:24:07.058Z,26.70
2017-05-29T18:26:34.295Z,26.60
2017-05-29T18:29:01.475Z,26.40
2017-05-29T18:31:28.679Z,26.30
2017-05-29T18:34:10.832Z,26.20
2017-05-29T18:36:38.004Z,26.00
2017-05-29T18:39:05.273Z,25.90
2017-05-29T18:41:32.477Z,25.80
2017-05-29T18:43:59.669Z,25.70
2017-05-29T18:46:27.013Z,25.50
2017-05-29T18:48:54.250Z,25.40
2017-05-29T18:51:21.454Z,25.30
2017-05-29T18:53:48.938Z,25.10
2017-05-29T18:56:16.192Z,25.00
2017-05-29T18:58:43.588Z,24.90
2017-05-29T19:01:10.872Z,24.80
2017-05-29T19:03:38.238Z,24.60
2017-05-29T19:06:06.459Z,24.50
2017-05-29T19:08:33.813Z,24.40
2017-05-29T19:11:01.187Z,24.20
2017-05-29T19:13:28.435Z,24.20
2017-05-29T19:15:55.735Z,24.00
2017-05-29T19:18:22.930Z,23.90
2017-05-29T19:20:50.126Z,23.80
2017-05-29T19:23:17.352Z,23.70
2017-05-29T19:25:44.631Z,23.60
2017-05-29T19:28:11.903Z,23.50
2017-05-29T19:30:39.281Z,23.50
2017-05-29T19:33:06.457Z,23.40
2017-05-29T19:35:33.637Z,23.30
2017-05-29T19:38:00.884Z,23.20
2017-05-29T19:40:28.172Z,23.20
2017-05-29T19:42:55.385Z,23.10
2017-05-29T19:45:22.588Z,23.10
2017-05-29T19:47:49.896Z,23.00
2017-05-29T19:50:17.269Z,23.00
2017-05-29T19:52:44.546Z,22.90
2017-05-29T19:55:12.828Z,22.90
2017-05-29T19:57:40.103Z,22.80
2017-05-29T20:00:07.390Z,22.70
2017-05-29T20:02:34.612Z,22.60
2017-05-29T20:05:01.842Z,22.60
2017-05-29T20:07:29.417Z,22.60
2017-05-29T20:09:56.792Z,22.50
2017-05-29T20:12:24.141Z,22.40
2017-05-29T20:14:51.548Z,22.30
2017-05-29T20:17:19.128Z,22.30
2017-05-29T20:19:46.381Z,22.20
2017-05-29T20:22:13.565Z,22.20
2017-05-29T20:24:40.791Z,22.20
2017-05-29T20:27:08.122Z,22.10
2017-05-29T20:29:35.401Z,22.10
2017-05-29T20:32:02.643Z,22.00
2017-05-29T20:34:29.869Z,22.00
2017-05-29T20:36:57.105Z,21.90
2017-05-29T20:39:24.277Z,21.90
2017-05-29T20:41:51.455Z,21.80
2017-05-29T20:44:18.654Z,21.80
2017-05-29T20:46:45.816Z,21.70
2017-05-29T20:49:12.982Z,21.60
2017-05-29T20:51:40.255Z,21.60
2017-05-29T20:54:07.458Z,21.50
2017-05-29T20:56:34.674Z,21.50
2017-05-29T20:59:02.028Z,21.40
2017-05-29T21:01:29.199Z,21.40
2017-05-29T21:03:56.422Z,21.30
2017-05-29T21:06:23.586Z,21.30
2017-05-29T21:08:50.767Z,21.30
2017-05-29T21:11:17.964Z,21.20
2017-05-29T21:13:48.524Z,21.20
2017-05-29T21:16:15.692Z,21.20
2017-05-29T21:18:42.882Z,21.10
2017-05-29T21:21:10.061Z,21.10
2017-05-29T21:23:37.237Z,21.00
2017-05-29T21:26:04.444Z,21.00
2017-05-29T21:28:31.601Z,21.00
2017-05-29T21:30:58.993Z,20.90
2017-05-29T21:33:26.268Z,20.80
2017-05-29T21:35:53.644Z,20.80
2017-05-29T21:38:21.131Z,20.70
2017-05-29T21:40:48.542Z,20.70
2017-05-29T21:43:15.799Z,20.70
2017-05-29T21:45:43.003Z,20.60
2017-05-29T21:48:10.321Z,20.60
2017-05-29T21:50:37.628Z,20.50
2017-05-29T21:53:04.784Z,20.50
2017-05-29T21:55:32.050Z,20.50
2017-05-29T21:57:59.192Z,20.40
2017-05-29T22:00:26.344Z,20.40
2017-05-29T22:02:53.528Z,20.30
2017-05-29T22:05:20.834Z,20.30
2017-05-29T22:07:48.005Z,20.30
2017-05-29T22:10:15.171Z,20.20
2017-05-29T22:12:42.326Z,20.20
2017-05-29T22:15:09.606Z,20.20
2017-05-29T22:17:36.902Z,20.10
2017-05-29T22:20:04.079Z,20.10
2017-05-29T22:22:31.345Z,20.10
2017-05-29T22:24:58.546Z,20.10
2017-05-29T22:27:25.712Z,20.00
2017-05-29T22:29:52.891Z,19.90
2017-05-29T22:32:20.095Z,19.90
2017-05-29T22:34:47.267Z,19.90
2017-05-29T22:37:14.447Z,19.90
2017-05-29T22:39:41.619Z,19.90
2017-05-29T22:42:09.372Z,19.90
2017-05-29T22:44:36.585Z,19.80
2017-05-29T22:47:04.266Z,19.80
2017-05-29T22:49:31.441Z,19.80
2017-05-29T22:51:58.739Z,19.70
2017-05-29T22:54:25.921Z,19.70
2017-05-29T22:56:53.099Z,19.60
2017-05-29T22:59:20.271Z,19.60
2017-05-29T23:01:47.449Z,19.60
2017-05-29T23:04:14.630Z,19.50
2017-05-29T23:06:45.971Z,19.50
2017-05-29T23:09:13.123Z,19.50
2017-05-29T23:11:40.295Z,19.40
2017-05-29T23:14:07.483Z,19.40
2017-05-29T23:16:34.645Z,19.40
2017-05-29T23:19:01.810Z,19.40
2017-05-29T23:21:28.996Z,19.40
2017-05-29T23:23:56.180Z,19.30
2017-05-29T23:26:23.441Z,19.30
2017-05-29T23:28:50.610Z,19.30
2017-05-29T23:31:17.806Z,19.20
2017-05-29T23:33:44.990Z,19.20
2017-05-29T23:36:12.271Z,19.20
2017-05-29T23:38:41.461Z,19.20
2017-05-29T23:41:08.610Z,19.10
2017-05-29T23:43:36.305Z,19.10
2017-05-29T23:46:03.479Z,19.10
2017-05-29T23:48:30.682Z,19.00
2017-05-29T23:50:57.854Z,19.00
2017-05-29T23:53:25.033Z,19.00
2017-05-29T23:55:52.220Z,19.00
2017-05-29T23:58:19.397Z,19.00
